sensor_id;sensor_type;location;lat;lon;timestamp;temperature;humidity
20773;DHT22;10546;50.674;4.616;2022-09-09T06:04:30;16.00;99.90
20773;DHT22;10546;50.674;4.616;2022-09-09T06:06:55;16.00;99.90
20773;DHT22;10546;50.674;4.616;2022-09-09T06:09:21;16.00;99.90
20773;DHT22;10546;50.674;4.616;2022-09-09T06:11:47;16.00;99.90
20773;DHT22;10546;50.674;4.616;2022-09-09T06:14:12;16.10;99.90
20773;DHT22;10546;50.674;4.616;2022-09-09T06:16:40;16.10;99.90
20773;DHT22;10546;50.674;4.616;2022-09-09T06:19:08;16.10;99.90
20773;DHT22;10546;50.674;4.616;2022-09-09T06:21:35;16.20;99.90
20773;DHT22;10546;50.674;4.616;2022-09-09T06:24:06;16.20;99.90
20773;DHT22;10546;50.674;4.616;2022-09-09T06:26:37;16.20;99.90
20773;DHT22;10546;50.674;4.616;2022-09-09T06:29:06;16.30;99.90
20773;DHT22;10546;50.674;4.616;2022-09-09T06:31:34;16.30;99.90
20773;DHT22;10546;50.674;4.616;2022-09-09T06:34:03;16.30;99.90
20773;DHT22;10546;50.674;4.616;2022-09-09T06:36:35;16.20;99.90
20773;DHT22;10546;50.674;4.616;2022-09-09T06:39:03;16.20;99.90
20773;DHT22;10546;50.674;4.616;2022-09-09T06:41:30;16.40;99.90
20773;DHT22;10546;50.674;4.616;2022-09-09T06:43:56;16.50;99.90
20773;DHT22;10546;50.674;4.616;2022-09-09T06:46:26;16.50;99.90
20773;DHT22;10546;50.674;4.616;2022-09-09T06:48:53;16.50;99.90
20773;DHT22;10546;50.674;4.616;2022-09-09T06:51:27;16.50;99.90
20773;DHT22;10546;50.674;4.616;2022-09-09T06:53:55;16.40;99.90
20773;DHT22;10546;50.674;4.616;2022-09-09T06:56:27;16.50;99.90
20773;DHT22;10546;50.674;4.616;2022-09-09T06:58:55;16.50;99.90
20773;DHT22;10546;50.674;4.616;2022-09-09T07:01:23;16.60;99.90
20773;DHT22;10546;50.674;4.616;2022-09-09T07:03:56;16.50;99.90
20773;DHT22;10546;50.674;4.616;2022-09-09T07:06:26;16.50;99.90
20773;DHT22;10546;50.674;4.616;2022-09-09T07:08:56;16.60;99.90
20773;DHT22;10546;50.674;4.616;2022-09-09T07:11:26;16.50;99.90
20773;DHT22;10546;50.674;4.616;2022-09-09T07:13:53;16.60;99.90
20773;DHT22;10546;50.674;4.616;2022-09-09T07:16:21;16.70;99.90
20773;DHT22;10546;50.674;4.616;2022-09-09T07:19:06;16.80;99.90
20773;DHT22;10546;50.674;4.616;2022-09-09T07:21:33;16.80;99.90
20773;DHT22;10546;50.674;4.616;2022-09-09T07:23:59;16.80;99.90
20773;DHT22;10546;50.674;4.616;2022-09-09T07:26:30;16.80;99.90
20773;DHT22;10546;50.674;4.616;2022-09-09T07:28:56;16.90;99.90
20773;DHT22;10546;50.674;4.616;2022-09-09T07:31:51;16.80;99.90
20773;DHT22;10546;50.674;4.616;2022-09-09T07:34:35;16.80;99.90
20773;DHT22;10546;50.674;4.616;2022-09-09T07:37:01;16.90;99.90
20773;DHT22;10546;50.674;4.616;2022-09-09T07:39:29;16.70;99.90
20773;DHT22;10546;50.674;4.616;2022-09-09T07:41:54;16.70;99.90
20773;DHT22;10546;50.674;4.616;2022-09-09T07:44:22;16.90;99.90
20773;DHT22;10546;50.674;4.616;2022-09-09T07:47:06;17.00;99.90
20773;DHT22;10546;50.674;4.616;2022-09-09T07:49:32;16.80;99.90
20773;DHT22;10546;50.674;4.616;2022-09-09T07:51:58;17.00;99.90
20773;DHT22;10546;50.674;4.616;2022-09-09T07:54:39;16.90;99.90
20773;DHT22;10546;50.674;4.616;2022-09-09T07:57:27;16.90;99.90
20773;DHT22;10546;50.674;4.616;2022-09-09T07:59:56;16.90;99.90
20773;DHT22;10546;50.674;4.616;2022-09-09T08:02:40;17.00;99.90
20773;DHT22;10546;50.674;4.616;2022-09-09T08:05:08;17.00;99.90
20773;DHT22;10546;50.674;4.616;2022-09-09T08:07:39;16.80;99.90
20773;DHT22;10546;50.674;4.616;2022-09-09T08:10:05;16.80;99.90
20773;DHT22;10546;50.674;4.616;2022-09-09T08:12:31;16.90;99.90
20773;DHT22;10546;50.674;4.616;2022-09-09T08:14:57;17.10;99.90
20773;DHT22;10546;50.674;4.616;2022-09-09T08:17:23;17.50;99.90
20773;DHT22;10546;50.674;4.616;2022-09-09T08:19:49;17.60;99.90
20773;DHT22;10546;50.674;4.616;2022-09-09T08:22:14;17.60;99.90
20773;DHT22;10546;50.674;4.616;2022-09-09T08:24:40;17.40;99.90
20773;DHT22;10546;50.674;4.616;2022-09-09T08:27:06;17.50;99.90
20773;DHT22;10546;50.674;4.616;2022-09-09T08:29:32;17.50;99.90
20773;DHT22;10546;50.674;4.616;2022-09-09T08:31:58;17.70;99.90
20773;DHT22;10546;50.674;4.616;2022-09-09T08:34:25;17.80;99.90
20773;DHT22;10546;50.674;4.616;2022-09-09T08:36:55;17.80;99.90
20773;DHT22;10546;50.674;4.616;2022-09-09T08:39:24;17.60;99.90
20773;DHT22;10546;50.674;4.616;2022-09-09T08:42:23;17.40;99.90
20773;DHT22;10546;50.674;4.616;2022-09-09T08:50:33;17.40;99.90
20773;DHT22;10546;50.674;4.616;2022-09-09T08:53:23;17.30;99.90
20773;DHT22;10546;50.674;4.616;2022-09-09T08:55:58;17.30;99.90
20773;DHT22;10546;50.674;4.616;2022-09-09T08:58:33;17.10;99.90
20773;DHT22;10546;50.674;4.616;2022-09-09T09:16:03;16.70;99.90
20773;DHT22;10546;50.674;4.616;2022-09-09T09:18:35;16.60;99.90
20773;DHT22;10546;50.674;4.616;2022-09-09T09:23:45;16.40;99.90
20773;DHT22;10546;50.674;4.616;2022-09-09T09:26:14;16.30;99.90
20773;DHT22;10546;50.674;4.616;2022-09-09T09:28:50;16.30;99.90
20773;DHT22;10546;50.674;4.616;2022-09-09T09:31:20;16.30;99.90
20773;DHT22;10546;50.674;4.616;2022-09-09T09:33:56;16.30;99.90
20773;DHT22;10546;50.674;4.616;2022-09-09T09:36:44;16.20;99.90
20773;DHT22;10546;50.674;4.616;2022-09-09T09:39:26;16.30;99.90
20773;DHT22;10546;50.674;4.616;2022-09-09T09:41:53;16.50;99.90
20773;DHT22;10546;50.674;4.616;2022-09-09T09:44:57;16.50;99.90
20773;DHT22;10546;50.674;4.616;2022-09-09T09:47:39;16.50;99.90
20773;DHT22;10546;50.674;4.616;2022-09-09T09:50:31;16.50;99.90
20773;DHT22;10546;50.674;4.616;2022-09-09T09:56:28;16.60;99.90
20773;DHT22;10546;50.674;4.616;2022-09-09T09:58:58;16.60;99.90
20773;DHT22;10546;50.674;4.616;2022-09-09T10:01:26;16.60;99.90
20773;DHT22;10546;50.674;4.616;2022-09-09T10:06:41;16.70;99.90
20773;DHT22;10546;50.674;4.616;2022-09-09T10:09:28;16.70;99.90
20773;DHT22;10546;50.674;4.616;2022-09-09T10:17:29;16.80;99.90
20773;DHT22;10546;50.674;4.616;2022-09-09T10:29:23;16.90;99.90
20773;DHT22;10546;50.674;4.616;2022-09-09T10:32:16;17.00;99.90
20773;DHT22;10546;50.674;4.616;2022-09-09T10:35:02;17.00;99.90
20773;DHT22;10546;50.674;4.616;2022-09-09T10:46:29;17.30;99.90
20773;DHT22;10546;50.674;4.616;2022-09-09T10:49:36;17.30;99.90
20773;DHT22;10546;50.674;4.616;2022-09-09T10:55:01;17.50;99.90
20773;DHT22;10546;50.674;4.616;2022-09-09T10:57:33;17.70;99.90
20773;DHT22;10546;50.674;4.616;2022-09-09T11:00:06;17.70;99.90
20773;DHT22;10546;50.674;4.616;2022-09-09T11:02:34;17.70;99.90
20773;DHT22;10546;50.674;4.616;2022-09-09T11:06:03;17.70;99.90
20773;DHT22;10546;50.674;4.616;2022-09-09T11:11:17;17.60;99.90
20773;DHT22;10546;50.674;4.616;2022-09-09T11:13:46;17.60;99.90
20773;DHT22;10546;50.674;4.616;2022-09-09T11:19:30;17.80;99.90
20773;DHT22;10546;50.674;4.616;2022-09-09T11:22:14;18.10;99.90
20773;DHT22;10546;50.674;4.616;2022-09-09T11:25:03;17.90;99.90
20773;DHT22;10546;50.674;4.616;2022-09-09T11:27:41;17.90;99.90
20773;DHT22;10546;50.674;4.616;2022-09-09T11:42:30;17.70;99.90
20773;DHT22;10546;50.674;4.616;2022-09-09T11:45:19;17.60;99.90
20773;DHT22;10546;50.674;4.616;2022-09-09T11:48:00;17.40;99.90
20773;DHT22;10546;50.674;4.616;2022-09-09T11:50:44;17.40;99.90
20773;DHT22;10546;50.674;4.616;2022-09-09T11:53:20;17.40;99.90
20773;DHT22;10546;50.674;4.616;2022-09-09T11:56:41;17.30;99.90
20773;DHT22;10546;50.674;4.616;2022-09-09T11:59:31;17.30;99.90
20773;DHT22;10546;50.674;4.616;2022-09-09T12:02:22;17.30;99.90
20773;DHT22;10546;50.674;4.616;2022-09-09T12:05:08;17.50;99.90
20773;DHT22;10546;50.674;4.616;2022-09-09T12:07:50;17.60;99.90
20773;DHT22;10546;50.674;4.616;2022-09-09T12:10:41;17.60;99.90
20773;DHT22;10546;50.674;4.616;2022-09-09T12:13:19;17.70;99.90
20773;DHT22;10546;50.674;4.616;2022-09-09T12:15:55;17.70;99.90
20773;DHT22;10546;50.674;4.616;2022-09-09T12:18:24;17.70;99.90
20773;DHT22;10546;50.674;4.616;2022-09-09T12:21:26;17.90;99.90
20773;DHT22;10546;50.674;4.616;2022-09-09T12:27:11;18.40;99.90
20773;DHT22;10546;50.674;4.616;2022-09-09T12:29:55;18.30;99.90
20773;DHT22;10546;50.674;4.616;2022-09-09T12:32:25;18.30;99.90
20773;DHT22;10546;50.674;4.616;2022-09-09T12:35:22;18.20;99.90
20773;DHT22;10546;50.674;4.616;2022-09-09T12:37:55;18.20;99.90
20773;DHT22;10546;50.674;4.616;2022-09-09T12:40:25;18.20;99.90
20773;DHT22;10546;50.674;4.616;2022-09-09T12:42:51;18.20;99.90
20773;DHT22;10546;50.674;4.616;2022-09-09T12:45:22;18.20;99.90
20773;DHT22;10546;50.674;4.616;2022-09-09T12:48:00;18.20;99.90
20773;DHT22;10546;50.674;4.616;2022-09-09T12:53:21;18.70;99.90
20773;DHT22;10546;50.674;4.616;2022-09-09T13:02:36;19.00;99.90
20773;DHT22;10546;50.674;4.616;2022-09-09T13:05:28;18.90;99.90
20773;DHT22;10546;50.674;4.616;2022-09-09T13:08:10;19.20;99.90
20773;DHT22;10546;50.674;4.616;2022-09-09T13:11:00;19.40;99.90
20773;DHT22;10546;50.674;4.616;2022-09-09T13:13:41;19.50;99.90
20773;DHT22;10546;50.674;4.616;2022-09-09T13:16:26;19.50;99.90
20773;DHT22;10546;50.674;4.616;2022-09-09T13:19:00;19.20;99.90
20773;DHT22;10546;50.674;4.616;2022-09-09T13:25:06;19.30;99.90
20773;DHT22;10546;50.674;4.616;2022-09-09T13:27:34;19.30;99.90
20773;DHT22;10546;50.674;4.616;2022-09-09T13:30:21;19.40;99.90
20773;DHT22;10546;50.674;4.616;2022-09-09T13:33:01;19.40;99.90
20773;DHT22;10546;50.674;4.616;2022-09-09T13:38:58;19.80;99.90
20773;DHT22;10546;50.674;4.616;2022-09-09T13:41:36;19.80;99.90
20773;DHT22;10546;50.674;4.616;2022-09-09T13:44:28;19.80;99.90
20773;DHT22;10546;50.674;4.616;2022-09-09T13:47:20;19.80;99.90
20773;DHT22;10546;50.674;4.616;2022-09-09T13:49:52;19.80;99.90
20773;DHT22;10546;50.674;4.616;2022-09-09T13:52:34;20.00;99.90
20773;DHT22;10546;50.674;4.616;2022-09-09T13:55:12;20.30;99.90
20773;DHT22;10546;50.674;4.616;2022-09-09T13:58:14;20.40;99.90
20773;DHT22;10546;50.674;4.616;2022-09-09T14:01:07;20.20;99.90
20773;DHT22;10546;50.674;4.616;2022-09-09T14:03:37;20.40;99.90
20773;DHT22;10546;50.674;4.616;2022-09-09T14:06:29;20.60;99.90
20773;DHT22;10546;50.674;4.616;2022-09-09T14:09:20;20.70;99.90
20773;DHT22;10546;50.674;4.616;2022-09-09T14:11:52;20.90;99.90
20773;DHT22;10546;50.674;4.616;2022-09-09T14:17:42;21.00;99.90
20773;DHT22;10546;50.674;4.616;2022-09-09T14:20:14;21.00;99.90
20773;DHT22;10546;50.674;4.616;2022-09-09T14:22:41;21.10;99.90
20773;DHT22;10546;50.674;4.616;2022-09-09T14:25:29;21.20;99.90
20773;DHT22;10546;50.674;4.616;2022-09-09T14:28:15;21.10;99.90
20773;DHT22;10546;50.674;4.616;2022-09-09T14:30:41;21.10;99.90
20773;DHT22;10546;50.674;4.616;2022-09-09T14:33:10;21.10;99.90
20773;DHT22;10546;50.674;4.616;2022-09-09T14:35:43;21.30;99.90
20773;DHT22;10546;50.674;4.616;2022-09-09T14:38:09;21.00;99.90
20773;DHT22;10546;50.674;4.616;2022-09-09T14:40:36;20.80;99.90
20773;DHT22;10546;50.674;4.616;2022-09-09T14:43:04;20.80;99.90
20773;DHT22;10546;50.674;4.616;2022-09-09T14:45:31;20.70;99.90
20773;DHT22;10546;50.674;4.616;2022-09-09T14:47:57;20.80;99.90
20773;DHT22;10546;50.674;4.616;2022-09-09T14:50:25;20.80;99.90
20773;DHT22;10546;50.674;4.616;2022-09-09T14:52:51;20.70;99.90
20773;DHT22;10546;50.674;4.616;2022-09-09T14:55:17;20.50;99.90
20773;DHT22;10546;50.674;4.616;2022-09-09T14:57:49;20.40;99.90
20773;DHT22;10546;50.674;4.616;2022-09-09T15:00:17;20.40;99.90
20773;DHT22;10546;50.674;4.616;2022-09-09T15:02:43;20.30;99.90
20773;DHT22;10546;50.674;4.616;2022-09-09T15:05:09;20.30;99.90
20773;DHT22;10546;50.674;4.616;2022-09-09T15:07:35;20.20;99.90
20773;DHT22;10546;50.674;4.616;2022-09-09T15:10:01;20.20;99.90
20773;DHT22;10546;50.674;4.616;2022-09-09T15:12:27;20.20;99.90
20773;DHT22;10546;50.674;4.616;2022-09-09T15:14:54;20.00;99.90
20773;DHT22;10546;50.674;4.616;2022-09-09T15:17:20;20.00;99.90
20773;DHT22;10546;50.674;4.616;2022-09-09T15:19:46;19.90;99.90
20773;DHT22;10546;50.674;4.616;2022-09-09T15:22:11;19.90;99.90
20773;DHT22;10546;50.674;4.616;2022-09-09T15:24:37;19.60;99.90
20773;DHT22;10546;50.674;4.616;2022-09-09T15:27:03;19.50;99.90
20773;DHT22;10546;50.674;4.616;2022-09-09T15:29:29;19.20;99.90
20773;DHT22;10546;50.674;4.616;2022-09-09T15:31:55;19.30;99.90
20773;DHT22;10546;50.674;4.616;2022-09-09T15:34:24;19.30;99.90
20773;DHT22;10546;50.674;4.616;2022-09-09T15:36:53;19.50;99.90
20773;DHT22;10546;50.674;4.616;2022-09-09T15:39:22;19.50;99.90
20773;DHT22;10546;50.674;4.616;2022-09-09T15:41:48;19.70;99.90
20773;DHT22;10546;50.674;4.616;2022-09-09T15:44:14;19.70;99.90
20773;DHT22;10546;50.674;4.616;2022-09-09T15:46:41;19.80;99.90
20773;DHT22;10546;50.674;4.616;2022-09-09T15:49:18;19.80;99.90
20773;DHT22;10546;50.674;4.616;2022-09-09T15:52:03;19.80;99.90
20773;DHT22;10546;50.674;4.616;2022-09-09T15:54:32;19.70;99.90
20773;DHT22;10546;50.674;4.616;2022-09-09T15:57:00;19.70;99.90
20773;DHT22;10546;50.674;4.616;2022-09-09T15:59:28;19.50;99.90
20773;DHT22;10546;50.674;4.616;2022-09-09T16:01:54;19.50;99.90
20773;DHT22;10546;50.674;4.616;2022-09-09T16:04:25;19.50;99.90
20773;DHT22;10546;50.674;4.616;2022-09-09T16:06:53;19.50;99.90
20773;DHT22;10546;50.674;4.616;2022-09-09T16:09:20;19.50;99.90
20773;DHT22;10546;50.674;4.616;2022-09-09T16:11:46;19.40;99.90
20773;DHT22;10546;50.674;4.616;2022-09-09T16:14:14;19.20;99.90
20773;DHT22;10546;50.674;4.616;2022-09-09T16:16:41;19.20;99.90
20773;DHT22;10546;50.674;4.616;2022-09-09T16:19:09;19.30;99.90
20773;DHT22;10546;50.674;4.616;2022-09-09T16:21:43;19.40;99.90
20773;DHT22;10546;50.674;4.616;2022-09-09T16:24:12;19.40;99.90
20773;DHT22;10546;50.674;4.616;2022-09-09T16:26:40;19.40;99.90
20773;DHT22;10546;50.674;4.616;2022-09-09T16:29:08;19.40;99.90
20773;DHT22;10546;50.674;4.616;2022-09-09T16:31:34;19.20;99.90
20773;DHT22;10546;50.674;4.616;2022-09-09T16:34:00;19.30;99.90
20773;DHT22;10546;50.674;4.616;2022-09-09T16:36:27;19.30;99.90
20773;DHT22;10546;50.674;4.616;2022-09-09T16:38:58;19.40;99.90
20773;DHT22;10546;50.674;4.616;2022-09-09T16:41:27;19.50;99.90
20773;DHT22;10546;50.674;4.616;2022-09-09T16:44:00;19.50;99.90
20773;DHT22;10546;50.674;4.616;2022-09-09T16:46:28;19.60;99.90
20773;DHT22;10546;50.674;4.616;2022-09-09T16:48:56;19.60;99.90
20773;DHT22;10546;50.674;4.616;2022-09-09T16:51:35;19.60;99.90
20773;DHT22;10546;50.674;4.616;2022-09-09T16:54:03;19.50;99.90
20773;DHT22;10546;50.674;4.616;2022-09-09T16:56:32;19.30;99.90
20773;DHT22;10546;50.674;4.616;2022-09-09T16:59:01;19.20;99.90
20773;DHT22;10546;50.674;4.616;2022-09-09T17:01:29;19.20;99.90
20773;DHT22;10546;50.674;4.616;2022-09-09T17:03:58;19.20;99.90
20773;DHT22;10546;50.674;4.616;2022-09-09T17:06:24;19.00;99.90
20773;DHT22;10546;50.674;4.616;2022-09-09T17:08:56;19.00;99.90
20773;DHT22;10546;50.674;4.616;2022-09-09T17:11:22;19.00;99.90
20773;DHT22;10546;50.674;4.616;2022-09-09T17:13:49;18.80;99.90
20773;DHT22;10546;50.674;4.616;2022-09-09T17:16:18;18.90;99.90
20773;DHT22;10546;50.674;4.616;2022-09-09T17:18:44;18.90;99.90
20773;DHT22;10546;50.674;4.616;2022-09-09T17:21:17;18.90;99.90
20773;DHT22;10546;50.674;4.616;2022-09-09T17:23:44;18.80;99.90
20773;DHT22;10546;50.674;4.616;2022-09-09T17:26:12;18.70;99.90
20773;DHT22;10546;50.674;4.616;2022-09-09T17:28:39;18.70;99.90
20773;DHT22;10546;50.674;4.616;2022-09-09T17:31:07;18.70;99.90
20773;DHT22;10546;50.674;4.616;2022-09-09T17:33:53;18.60;99.90
20773;DHT22;10546;50.674;4.616;2022-09-09T17:36:25;18.50;99.90
20773;DHT22;10546;50.674;4.616;2022-09-09T17:38:56;18.30;99.90
20773;DHT22;10546;50.674;4.616;2022-09-09T17:41:45;18.20;99.90
20773;DHT22;10546;50.674;4.616;2022-09-09T17:44:11;18.00;99.90
20773;DHT22;10546;50.674;4.616;2022-09-09T17:46:42;18.00;99.90
20773;DHT22;10546;50.674;4.616;2022-09-09T17:49:15;18.00;99.90
20773;DHT22;10546;50.674;4.616;2022-09-09T17:51:45;18.00;99.90
20773;DHT22;10546;50.674;4.616;2022-09-09T17:54:17;18.10;99.90
20773;DHT22;10546;50.674;4.616;2022-09-09T17:56:46;18.00;99.90
20773;DHT22;10546;50.674;4.616;2022-09-09T17:59:24;17.80;99.90
20773;DHT22;10546;50.674;4.616;2022-09-09T18:01:51;17.80;99.90
20773;DHT22;10546;50.674;4.616;2022-09-09T18:04:18;17.70;99.90
20773;DHT22;10546;50.674;4.616;2022-09-09T18:06:46;17.80;99.90
20773;DHT22;10546;50.674;4.616;2022-09-09T18:09:15;17.80;99.90
20773;DHT22;10546;50.674;4.616;2022-09-09T18:11:45;17.80;99.90
20773;DHT22;10546;50.674;4.616;2022-09-09T18:14:17;17.80;99.90
20773;DHT22;10546;50.674;4.616;2022-09-09T18:16:46;17.80;99.90
20773;DHT22;10546;50.674;4.616;2022-09-09T18:19:13;17.70;99.90
20773;DHT22;10546;50.674;4.616;2022-09-09T18:21:41;17.70;99.90
20773;DHT22;10546;50.674;4.616;2022-09-09T18:24:09;17.80;99.90
20773;DHT22;10546;50.674;4.616;2022-09-09T18:26:37;17.80;99.90
20773;DHT22;10546;50.674;4.616;2022-09-09T18:29:09;17.80;99.90
20773;DHT22;10546;50.674;4.616;2022-09-09T18:31:38;17.80;99.90
20773;DHT22;10546;50.674;4.616;2022-09-09T18:34:08;17.80;99.90
20773;DHT22;10546;50.674;4.616;2022-09-09T18:36:37;17.80;99.90
20773;DHT22;10546;50.674;4.616;2022-09-09T18:39:05;17.80;99.90
20773;DHT22;10546;50.674;4.616;2022-09-09T18:41:35;17.80;99.90
20773;DHT22;10546;50.674;4.616;2022-09-09T18:44:12;17.70;99.90
20773;DHT22;10546;50.674;4.616;2022-09-09T18:46:38;17.80;99.90
20773;DHT22;10546;50.674;4.616;2022-09-09T18:49:06;17.60;99.90
20773;DHT22;10546;50.674;4.616;2022-09-09T18:51:36;17.60;99.90
20773;DHT22;10546;50.674;4.616;2022-09-09T18:54:27;17.50;99.90
20773;DHT22;10546;50.674;4.616;2022-09-09T18:56:58;17.50;99.90
20773;DHT22;10546;50.674;4.616;2022-09-09T18:59:25;17.50;99.90
20773;DHT22;10546;50.674;4.616;2022-09-09T19:02:14;17.50;99.90
20773;DHT22;10546;50.674;4.616;2022-09-09T19:04:40;17.50;99.90
20773;DHT22;10546;50.674;4.616;2022-09-09T19:07:09;17.50;99.90
20773;DHT22;10546;50.674;4.616;2022-09-09T19:09:55;17.50;99.90
20773;DHT22;10546;50.674;4.616;2022-09-09T19:12:28;17.40;99.90
20773;DHT22;10546;50.674;4.616;2022-09-09T19:15:00;17.40;99.90
20773;DHT22;10546;50.674;4.616;2022-09-09T19:17:46;17.40;99.90
20773;DHT22;10546;50.674;4.616;2022-09-09T19:20:32;17.40;99.90
20773;DHT22;10546;50.674;4.616;2022-09-09T19:23:04;17.50;99.90
20773;DHT22;10546;50.674;4.616;2022-09-09T19:25:34;17.50;99.90
20773;DHT22;10546;50.674;4.616;2022-09-09T19:28:21;17.40;99.90
20773;DHT22;10546;50.674;4.616;2022-09-09T19:30:47;17.20;99.90
20773;DHT22;10546;50.674;4.616;2022-09-09T19:33:17;17.00;99.90
20773;DHT22;10546;50.674;4.616;2022-09-09T19:35:42;16.80;99.90
20773;DHT22;10546;50.674;4.616;2022-09-09T19:38:08;16.80;99.90
20773;DHT22;10546;50.674;4.616;2022-09-09T19:40:36;16.60;99.90
20773;DHT22;10546;50.674;4.616;2022-09-09T19:43:42;16.40;99.90
20773;DHT22;10546;50.674;4.616;2022-09-09T19:46:36;16.30;99.90
20773;DHT22;10546;50.674;4.616;2022-09-09T19:49:05;16.20;99.90
20773;DHT22;10546;50.674;4.616;2022-09-09T19:51:49;16.20;99.90
20773;DHT22;10546;50.674;4.616;2022-09-09T19:54:15;16.20;99.90
20773;DHT22;10546;50.674;4.616;2022-09-09T19:57:00;16.10;99.90
20773;DHT22;10546;50.674;4.616;2022-09-09T19:59:36;16.00;99.90
20773;DHT22;10546;50.674;4.616;2022-09-09T20:02:02;15.90;99.90
20773;DHT22;10546;50.674;4.616;2022-09-09T20:04:59;15.70;99.90
20773;DHT22;10546;50.674;4.616;2022-09-09T20:07:24;15.70;99.90
20773;DHT22;10546;50.674;4.616;2022-09-09T20:09:50;15.80;99.90
20773;DHT22;10546;50.674;4.616;2022-09-09T20:12:17;15.70;99.90
20773;DHT22;10546;50.674;4.616;2022-09-09T20:14:42;15.70;99.90
20773;DHT22;10546;50.674;4.616;2022-09-09T20:17:08;15.70;99.90
20773;DHT22;10546;50.674;4.616;2022-09-09T20:19:34;15.60;99.90
20773;DHT22;10546;50.674;4.616;2022-09-09T20:22:00;15.50;99.90
20773;DHT22;10546;50.674;4.616;2022-09-09T20:24:26;15.50;99.90
20773;DHT22;10546;50.674;4.616;2022-09-09T20:26:51;15.60;99.90
20773;DHT22;10546;50.674;4.616;2022-09-09T20:29:20;15.60;99.90
20773;DHT22;10546;50.674;4.616;2022-09-09T20:31:46;15.60;99.90
20773;DHT22;10546;50.674;4.616;2022-09-09T20:34:15;15.60;99.90
20773;DHT22;10546;50.674;4.616;2022-09-09T20:36:41;15.50;99.90
20773;DHT22;10546;50.674;4.616;2022-09-09T20:39:09;15.60;99.90
20773;DHT22;10546;50.674;4.616;2022-09-09T20:41:37;15.40;99.90
20773;DHT22;10546;50.674;4.616;2022-09-09T20:44:09;15.40;99.90
20773;DHT22;10546;50.674;4.616;2022-09-09T20:46:40;15.40;99.90
20773;DHT22;10546;50.674;4.616;2022-09-09T20:49:08;15.40;99.90
20773;DHT22;10546;50.674;4.616;2022-09-09T20:51:34;15.40;99.90
20773;DHT22;10546;50.674;4.616;2022-09-09T20:54:03;15.40;99.90
20773;DHT22;10546;50.674;4.616;2022-09-09T20:56:31;15.40;99.90
20773;DHT22;10546;50.674;4.616;2022-09-09T20:58:58;15.40;99.90
20773;DHT22;10546;50.674;4.616;2022-09-09T21:01:30;15.40;99.90
20773;DHT22;10546;50.674;4.616;2022-09-09T21:03:58;15.30;99.90
20773;DHT22;10546;50.674;4.616;2022-09-09T21:06:24;15.30;99.90
20773;DHT22;10546;50.674;4.616;2022-09-09T21:08:50;15.30;99.90
20773;DHT22;10546;50.674;4.616;2022-09-09T21:11:16;15.30;99.90
20773;DHT22;10546;50.674;4.616;2022-09-09T21:13:43;15.20;99.90
20773;DHT22;10546;50.674;4.616;2022-09-09T21:16:12;15.20;99.90
20773;DHT22;10546;50.674;4.616;2022-09-09T21:18:39;15.20;99.90
20773;DHT22;10546;50.674;4.616;2022-09-09T21:21:06;15.30;99.90
20773;DHT22;10546;50.674;4.616;2022-09-09T21:23:32;15.30;99.90
20773;DHT22;10546;50.674;4.616;2022-09-09T21:25:58;15.30;99.90
20773;DHT22;10546;50.674;4.616;2022-09-09T21:28:24;15.30;99.90
20773;DHT22;10546;50.674;4.616;2022-09-09T21:30:54;15.30;99.90
20773;DHT22;10546;50.674;4.616;2022-09-09T21:33:25;15.20;99.90
20773;DHT22;10546;50.674;4.616;2022-09-09T21:35:53;15.30;99.90
20773;DHT22;10546;50.674;4.616;2022-09-09T21:38:31;15.40;99.90
20773;DHT22;10546;50.674;4.616;2022-09-09T21:41:12;15.40;99.90
20773;DHT22;10546;50.674;4.616;2022-09-09T21:43:54;15.40;99.90
20773;DHT22;10546;50.674;4.616;2022-09-09T21:46:20;15.50;99.90
20773;DHT22;10546;50.674;4.616;2022-09-09T21:48:46;15.50;99.90
20773;DHT22;10546;50.674;4.616;2022-09-09T21:51:18;15.50;99.90
20773;DHT22;10546;50.674;4.616;2022-09-09T21:53:44;15.60;99.90
20773;DHT22;10546;50.674;4.616;2022-09-09T21:56:17;15.50;99.90
20773;DHT22;10546;50.674;4.616;2022-09-09T21:58:54;15.70;99.90
20773;DHT22;10546;50.674;4.616;2022-09-09T22:01:21;15.70;99.90
20773;DHT22;10546;50.674;4.616;2022-09-09T22:04:03;15.70;99.90
20773;DHT22;10546;50.674;4.616;2022-09-09T22:06:28;15.70;99.90
20773;DHT22;10546;50.674;4.616;2022-09-09T22:08:54;15.70;99.90
20773;DHT22;10546;50.674;4.616;2022-09-09T22:11:23;15.70;99.90
20773;DHT22;10546;50.674;4.616;2022-09-09T22:14:09;15.80;99.90
20773;DHT22;10546;50.674;4.616;2022-09-09T22:16:35;15.80;99.90
20773;DHT22;10546;50.674;4.616;2022-09-09T22:19:00;15.80;99.90
20773;DHT22;10546;50.674;4.616;2022-09-09T22:21:47;15.70;99.90
20773;DHT22;10546;50.674;4.616;2022-09-09T22:24:14;15.80;99.90
20773;DHT22;10546;50.674;4.616;2022-09-09T22:26:42;15.70;99.90
20773;DHT22;10546;50.674;4.616;2022-09-09T22:29:07;15.80;99.90
20773;DHT22;10546;50.674;4.616;2022-09-09T22:31:34;15.70;99.90
20773;DHT22;10546;50.674;4.616;2022-09-09T22:34:01;15.80;99.90
20773;DHT22;10546;50.674;4.616;2022-09-09T22:36:27;15.80;99.90
20773;DHT22;10546;50.674;4.616;2022-09-09T22:38:53;15.80;99.90
20773;DHT22;10546;50.674;4.616;2022-09-09T22:41:20;15.70;99.90
20773;DHT22;10546;50.674;4.616;2022-09-09T22:43:46;15.70;99.90
20773;DHT22;10546;50.674;4.616;2022-09-09T22:46:12;15.60;99.90
20773;DHT22;10546;50.674;4.616;2022-09-09T22:48:38;15.80;99.90
20773;DHT22;10546;50.674;4.616;2022-09-09T22:51:06;15.60;99.90
20773;DHT22;10546;50.674;4.616;2022-09-09T22:53:33;15.70;99.90
20773;DHT22;10546;50.674;4.616;2022-09-09T22:56:03;15.70;99.90
20773;DHT22;10546;50.674;4.616;2022-09-09T22:58:31;15.80;99.90
20773;DHT22;10546;50.674;4.616;2022-09-09T23:00:57;15.80;99.90
20773;DHT22;10546;50.674;4.616;2022-09-09T23:03:28;15.70;99.90
20773;DHT22;10546;50.674;4.616;2022-09-09T23:05:59;15.70;99.90
20773;DHT22;10546;50.674;4.616;2022-09-09T23:08:30;15.80;99.90
20773;DHT22;10546;50.674;4.616;2022-09-09T23:10:58;15.80;99.90
20773;DHT22;10546;50.674;4.616;2022-09-09T23:13:25;15.90;99.90
20773;DHT22;10546;50.674;4.616;2022-09-09T23:15:52;15.80;99.90
20773;DHT22;10546;50.674;4.616;2022-09-09T23:18:19;15.90;99.90
20773;DHT22;10546;50.674;4.616;2022-09-09T23:20:55;15.90;99.90
20773;DHT22;10546;50.674;4.616;2022-09-09T23:23:23;15.90;99.90
20773;DHT22;10546;50.674;4.616;2022-09-09T23:25:50;15.90;99.90
20773;DHT22;10546;50.674;4.616;2022-09-09T23:28:15;15.90;99.90
20773;DHT22;10546;50.674;4.616;2022-09-09T23:30:41;15.80;99.90
20773;DHT22;10546;50.674;4.616;2022-09-09T23:33:06;15.80;99.90
20773;DHT22;10546;50.674;4.616;2022-09-09T23:35:32;15.70;99.90
20773;DHT22;10546;50.674;4.616;2022-09-09T23:37:58;15.70;99.90
20773;DHT22;10546;50.674;4.616;2022-09-09T23:40:24;15.70;99.90
20773;DHT22;10546;50.674;4.616;2022-09-09T23:42:51;15.70;99.90